Hauptseite
METAR-TAF:

METAR-TAF

Flughäfen :

Flughafen Marka International

Amman, Jordanien

Breite: 31-59N, Länge: 035-59E, Höhe: 767 m

Beobachtung

Neuester Wetterbericht von vor 44 Minuten, um 09:00 UTC
Wind 11 kt aus West/Nordwest
Temperatur 28°C
Luftfeuchtigkeit 35%
Luftdruck 1015 hPa
Sichtweite: 6000 m

METAR: OJAM 190900Z 29011KT 6000 NSC 28/11 Q1015 NOSIG

Zeit: 12:44 (09:44 UTC)

Prognose

Neuester Wetterbericht von vor 5 Stunden und 5 Minuten, um 04:39 UTC
Gültige Prognose vom 19 um 06 UTC bis 20 um 12 UTC
Wind 10 kt aus West/Nordwest
Sichtweite: 5000 m
Leicht bewölkt in der Höhe von 3500 ft
trockener Dunst
Wahrscheinlichkeit 30%
vom 20 um 02 UTC bis 20 um 05 UTC
Wind 2 kt aus unterschiedlichen Richtungen
Sichtweite: 3000 m
feuchter Dunst

TAF: OJAM 190439Z 1906/2012 29010KT 5000 HZ FEW035 PROB30 2002/2005 VRB02KT 3000 BR

Wetterbeobachtungen und Prognosen von mehr als 4000 Flughäfen (METAR und TAF Bericht).

Die verfügbaren Stationen werden durch gelbe und rote Markierungen auf der Karte dargestellt.

Führen Sie die Maus auf sie, um den Namen der Station zu sehen.

Darauf klicken, um die Beobachtung von Wetterbeobachtungen und Prognosen zu sehen.

Um die Karte zu ändern : klicken Sie auf den grünen Tasten mit einem schwarzen Kreuz Zum Vergrößern, auf den grünen Button mit einem Gedankenstrich zu verkleinern, oder auf die grünen Pfeile für benachbarte Karten.


METAR-TAF: